メインページ
METAR-TAF:

METAR-TAF

空港 :

Friday Harbor Airport

Friday Harbor, ワシントン, アメリカ合衆国

緯度: 48-31-13N, 経度: 123-01-31W, 海抜: 33m

現時点の気象観測

当レポートは34分前の00:53(UTC)に作成
西の風 3kt
気温 5°C
湿度 81%
気圧 1014 hPa
視程: 16.1km
晴天

METAR: KFHR 210053Z AUTO 28003KT 10SM CLR 05/02 A2994 RMK AO2 SLP138 T00500017

時間: 17:27 (01:27 UTC)


TAF: 見つかりません

4,000以上の空港の気象観測と天気予報(METAR報とTAF報)

利用可能な観測所は地図上に黄色い丸と赤い丸で示す。

丸の上にカーソルを重ねると観測所名を参照できる。

次にクリックすると気象観測と天気予報を参照できる。

マップの切り替え:黒色「×」印の緑ボタンをクリックして拡大、「-」印の緑ボタンをクリックして縮小、緑色の三角印をクリックして隣りの地図に切り替え


METAR-TAF: